createdAt,value
2023-02-18T00:00:06.970Z,39.90
2023-02-18T00:02:34.854Z,39.70
2023-02-18T00:05:02.850Z,39.80
2023-02-18T00:07:30.650Z,39.60
2023-02-18T00:09:58.470Z,39.80
2023-02-18T00:12:26.274Z,40.00
2023-02-18T00:14:54.086Z,39.70
2023-02-18T00:17:22.040Z,39.70
2023-02-18T00:19:49.942Z,39.90
2023-02-18T00:22:17.720Z,39.90
2023-02-18T00:24:45.581Z,39.80
2023-02-18T00:27:13.421Z,39.80
2023-02-18T00:29:41.266Z,39.90
2023-02-18T00:32:09.158Z,39.90
2023-02-18T00:34:36.941Z,39.70
2023-02-18T00:37:04.693Z,40.00
2023-02-18T00:39:32.555Z,39.90
2023-02-18T00:42:00.587Z,39.80
2023-02-18T00:44:28.406Z,40.00
2023-02-18T00:46:56.158Z,40.00
2023-02-18T00:49:24.136Z,39.90
2023-02-18T00:51:51.947Z,40.10
2023-02-18T00:54:19.751Z,40.00
2023-02-18T00:56:47.652Z,40.80
2023-02-18T00:59:15.473Z,40.00
2023-02-18T01:01:43.308Z,40.10
2023-02-18T01:04:11.298Z,40.20
2023-02-18T01:06:39.084Z,40.20
2023-02-18T01:09:06.867Z,40.00
2023-02-18T01:11:34.726Z,40.10
2023-02-18T01:14:02.502Z,40.20
2023-02-18T01:16:30.354Z,39.90
2023-02-18T01:18:58.209Z,40.20
2023-02-18T01:21:26.053Z,40.20
2023-02-18T01:23:53.842Z,40.10
2023-02-18T01:26:21.661Z,40.90
2023-02-18T01:28:49.538Z,40.20
2023-02-18T01:31:18.623Z,40.20
2023-02-18T01:33:46.458Z,40.20
2023-02-18T01:36:14.717Z,40.20
2023-02-18T01:38:42.590Z,40.10
2023-02-18T01:41:10.399Z,40.30
2023-02-18T01:43:38.291Z,40.20
2023-02-18T01:46:06.254Z,40.20
2023-02-18T01:48:34.292Z,40.30
2023-02-18T01:51:02.064Z,40.20
2023-02-18T01:53:29.937Z,40.20
2023-02-18T01:55:57.723Z,40.30
2023-02-18T01:58:25.526Z,40.40
2023-02-18T02:00:53.324Z,40.30
2023-02-18T02:03:21.203Z,40.20
2023-02-18T02:05:49.310Z,40.20
2023-02-18T02:08:17.127Z,40.20
2023-02-18T02:10:44.932Z,40.20
2023-02-18T02:13:12.694Z,40.10
2023-02-18T02:15:40.448Z,40.10
2023-02-18T02:18:08.307Z,40.20
2023-02-18T02:20:36.089Z,40.10
2023-02-18T02:23:03.869Z,40.30
2023-02-18T02:25:31.677Z,40.30
2023-02-18T02:27:59.430Z,40.20
2023-02-18T02:30:27.348Z,40.30
2023-02-18T02:32:55.201Z,40.30
2023-02-18T02:35:23.199Z,40.10
2023-02-18T02:37:51.067Z,40.10
2023-02-18T02:40:18.993Z,39.90
2023-02-18T02:42:47.987Z,40.10
2023-02-18T02:45:15.840Z,40.20
2023-02-18T02:47:43.608Z,40.20
2023-02-18T02:50:11.380Z,40.10
2023-02-18T02:52:46.243Z,40.10
2023-02-18T02:55:14.125Z,40.30
2023-02-18T02:57:41.982Z,40.10
2023-02-18T03:00:10.472Z,40.10
2023-02-18T03:02:38.754Z,40.10
2023-02-18T03:05:06.548Z,40.10
2023-02-18T03:07:34.931Z,40.10
2023-02-18T03:10:02.947Z,40.10
2023-02-18T03:12:30.686Z,40.00
2023-02-18T03:14:58.587Z,40.10
2023-02-18T03:17:26.379Z,40.20
2023-02-18T03:19:54.176Z,40.00
2023-02-18T03:22:22.055Z,40.30
2023-02-18T03:24:49.910Z,40.30
2023-02-18T03:27:17.712Z,40.30
2023-02-18T03:29:45.459Z,40.20
2023-02-18T03:32:13.285Z,40.20
2023-02-18T03:34:41.135Z,40.30
2023-02-18T03:37:08.974Z,40.30
2023-02-18T03:39:36.882Z,40.10
2023-02-18T03:42:04.657Z,40.30
2023-02-18T03:44:32.451Z,40.30
2023-02-18T03:47:00.226Z,40.00
2023-02-18T03:49:28.008Z,40.40
2023-02-18T03:51:55.850Z,40.30
2023-02-18T03:54:23.762Z,40.30
2023-02-18T03:56:51.594Z,40.30
2023-02-18T03:59:19.569Z,40.40
2023-02-18T04:01:47.323Z,40.40
2023-02-18T04:04:15.261Z,40.60
2023-02-18T04:06:43.051Z,40.40
2023-02-18T04:09:10.745Z,40.40
2023-02-18T04:11:38.528Z,40.50
2023-02-18T04:14:06.413Z,40.30
2023-02-18T04:16:34.214Z,40.50
2023-02-18T04:19:02.199Z,40.50
2023-02-18T04:21:30.013Z,40.40
2023-02-18T04:23:57.778Z,40.60
2023-02-18T04:26:25.597Z,40.50
2023-02-18T04:28:53.381Z,40.60
2023-02-18T04:31:21.298Z,40.40
2023-02-18T04:33:49.060Z,40.40
2023-02-18T04:36:16.831Z,40.40
2023-02-18T04:38:44.586Z,40.50
2023-02-18T04:41:12.899Z,40.30
2023-02-18T04:43:40.733Z,40.40
2023-02-18T04:46:08.828Z,40.50
2023-02-18T04:48:36.914Z,40.30
2023-02-18T04:51:04.648Z,40.50
2023-02-18T04:53:32.505Z,40.50
2023-02-18T04:56:00.518Z,40.20
2023-02-18T04:58:28.327Z,40.50
2023-02-18T05:00:56.121Z,40.60
2023-02-18T05:03:23.934Z,40.50
2023-02-18T05:05:51.756Z,40.60
2023-02-18T05:08:19.521Z,41.30
2023-02-18T05:10:47.295Z,40.60
2023-02-18T05:13:15.078Z,40.50
2023-02-18T05:15:42.884Z,40.50
2023-02-18T05:18:10.799Z,40.60
2023-02-18T05:20:38.598Z,40.70
2023-02-18T05:23:06.450Z,40.60
2023-02-18T05:25:34.215Z,40.70
2023-02-18T05:28:01.996Z,40.70
2023-02-18T05:30:29.892Z,40.70
2023-02-18T05:32:57.765Z,40.70
2023-02-18T05:35:25.570Z,40.80
2023-02-18T05:37:53.400Z,40.70
2023-02-18T05:40:21.158Z,40.70
2023-02-18T05:42:49.026Z,40.60
2023-02-18T05:45:16.813Z,40.80
2023-02-18T05:47:44.624Z,40.70
2023-02-18T05:50:12.416Z,40.60
2023-02-18T05:52:40.206Z,40.50
2023-02-18T05:55:08.038Z,39.90
2023-02-18T05:57:35.781Z,39.50
2023-02-18T06:00:05.404Z,38.90
2023-02-18T06:02:33.270Z,38.20
2023-02-18T06:05:01.042Z,37.80
2023-02-18T06:07:28.887Z,37.30
2023-02-18T06:09:56.788Z,37.00
2023-02-18T06:12:24.568Z,36.90
2023-02-18T06:14:52.362Z,36.60
2023-02-18T06:17:20.130Z,36.40
2023-02-18T06:19:48.014Z,36.40
2023-02-18T06:22:15.783Z,32.30
2023-02-18T06:24:43.540Z,27.60
2023-02-18T06:27:11.368Z,24.00
2023-02-18T06:29:39.169Z,21.70
2023-02-18T06:32:07.077Z,20.30
2023-02-18T06:34:35.023Z,19.30
2023-02-18T06:37:02.798Z,18.70
2023-02-18T06:39:30.677Z,18.50
2023-02-18T06:41:58.556Z,18.20
2023-02-18T06:44:26.399Z,17.90
2023-02-18T06:46:54.240Z,17.90
2023-02-18T06:49:22.144Z,17.70
2023-02-18T06:51:49.990Z,17.90
2023-02-18T06:54:17.769Z,18.30
2023-02-18T06:56:45.558Z,18.70
2023-02-18T06:59:13.913Z,19.10
2023-02-18T07:01:41.733Z,19.80
2023-02-18T07:04:09.558Z,20.20
2023-02-18T07:06:37.553Z,20.90
2023-02-18T07:09:05.368Z,21.50
2023-02-18T07:11:33.168Z,22.00
2023-02-18T07:14:01.080Z,22.80
2023-02-18T07:16:28.864Z,23.50
2023-02-18T07:18:56.646Z,24.10
2023-02-18T07:21:24.493Z,24.70
2023-02-18T07:23:52.289Z,25.40
2023-02-18T07:26:20.119Z,25.80
2023-02-18T07:28:48.137Z,26.40
2023-02-18T07:31:17.772Z,26.90
2023-02-18T07:33:45.638Z,27.40
2023-02-18T07:36:13.426Z,27.90
2023-02-18T07:38:42.130Z,28.40
2023-02-18T07:41:10.754Z,28.90
2023-02-18T07:43:38.526Z,29.40
2023-02-18T07:46:06.643Z,29.70
2023-02-18T07:48:34.642Z,30.00
2023-02-18T07:51:02.363Z,30.50
2023-02-18T07:53:30.120Z,31.10
2023-02-18T07:56:00.188Z,31.50
2023-02-18T07:58:28.050Z,31.90
2023-02-18T08:00:55.815Z,32.40
2023-02-18T08:03:23.612Z,32.80
2023-02-18T08:05:52.843Z,33.20
2023-02-18T08:08:20.932Z,33.60
2023-02-18T08:10:48.736Z,33.90
2023-02-18T08:13:16.535Z,34.10
2023-02-18T08:15:44.350Z,34.50
2023-02-18T08:18:12.136Z,34.80
2023-02-18T08:20:39.944Z,35.20
2023-02-18T08:23:07.793Z,35.40
2023-02-18T08:25:35.567Z,33.70
2023-02-18T08:28:03.337Z,29.90
2023-02-18T08:30:31.256Z,26.30
2023-02-18T08:32:59.090Z,23.60
2023-02-18T08:35:26.914Z,21.90
2023-02-18T08:37:55.150Z,20.80
2023-02-18T08:40:23.502Z,20.30
2023-02-18T08:42:51.284Z,20.00
2023-02-18T08:45:19.049Z,19.70
2023-02-18T08:48:17.373Z,19.80
2023-02-18T08:50:34.725Z,20.00
2023-02-18T08:53:03.601Z,20.40
2023-02-18T08:55:31.342Z,20.70
2023-02-18T08:57:59.159Z,21.40
2023-02-18T09:00:27.000Z,21.80
2023-02-18T09:02:54.789Z,22.30
2023-02-18T09:05:22.576Z,23.10
2023-02-18T09:07:50.392Z,23.50
2023-02-18T09:10:18.152Z,24.10
2023-02-18T09:12:45.941Z,24.70
2023-02-18T09:15:13.701Z,25.20
2023-02-18T09:17:41.508Z,25.70
2023-02-18T09:20:09.326Z,26.20
2023-02-18T09:22:37.071Z,26.70
2023-02-18T09:25:04.849Z,27.20
2023-02-18T09:27:32.592Z,27.60
2023-02-18T09:30:00.381Z,28.10
2023-02-18T09:32:34.820Z,28.50
2023-02-18T09:35:03.460Z,29.00
2023-02-18T09:37:31.303Z,29.40
2023-02-18T09:40:00.138Z,29.80
2023-02-18T09:42:28.160Z,30.10
2023-02-18T09:44:55.954Z,30.60
2023-02-18T09:47:23.765Z,31.10
2023-02-18T09:49:51.532Z,31.50
2023-02-18T09:52:19.346Z,31.80
2023-02-18T09:54:47.190Z,32.30
2023-02-18T09:57:14.993Z,32.70
2023-02-18T09:59:42.798Z,33.10
2023-02-18T10:02:10.518Z,33.50
2023-02-18T10:04:38.297Z,33.80
2023-02-18T10:07:07.025Z,34.10
2023-02-18T10:09:34.801Z,34.50
2023-02-18T10:12:02.590Z,34.60
2023-02-18T10:14:31.867Z,35.00
2023-02-18T10:16:59.662Z,35.20
2023-02-18T10:19:27.461Z,35.40
2023-02-18T10:21:55.311Z,35.80
2023-02-18T10:24:23.066Z,35.90
2023-02-18T10:26:50.851Z,36.10
2023-02-18T10:29:21.381Z,36.30
2023-02-18T10:31:49.602Z,36.40
2023-02-18T10:34:17.526Z,36.60
2023-02-18T10:36:45.282Z,36.60
2023-02-18T10:39:13.098Z,36.90
2023-02-18T10:41:40.845Z,37.10
2023-02-18T10:44:08.701Z,37.10
2023-02-18T10:46:36.569Z,37.50
2023-02-18T10:49:04.566Z,38.10
2023-02-18T10:51:32.374Z,37.50
2023-02-18T10:54:00.164Z,37.70
2023-02-18T10:56:27.935Z,37.90
2023-02-18T10:58:55.779Z,37.80
2023-02-18T11:01:23.581Z,38.00
2023-02-18T11:03:51.349Z,38.10
2023-02-18T11:06:19.128Z,38.20
2023-02-18T11:08:46.890Z,38.30
2023-02-18T11:11:14.670Z,38.20
2023-02-18T11:13:42.460Z,38.40
2023-02-18T11:16:10.432Z,38.60
2023-02-18T11:18:38.583Z,38.50
2023-02-18T11:21:26.134Z,38.50
2023-02-18T11:23:53.941Z,38.70
2023-02-18T11:26:21.776Z,38.80
2023-02-18T11:28:49.560Z,38.70
2023-02-18T11:31:17.496Z,38.70
2023-02-18T11:33:45.974Z,38.80
2023-02-18T11:36:15.424Z,38.90
2023-02-18T11:38:44.897Z,38.90
2023-02-18T11:41:13.852Z,38.90
2023-02-18T11:43:41.655Z,39.00
2023-02-18T11:46:09.416Z,39.10
2023-02-18T11:48:37.146Z,39.20
2023-02-18T11:51:07.149Z,39.20
2023-02-18T11:53:35.245Z,39.10
2023-02-18T11:56:06.910Z,39.20
2023-02-18T11:58:34.652Z,39.30
2023-02-18T12:01:03.474Z,39.40
2023-02-18T12:03:32.931Z,39.30
2023-02-18T12:06:01.841Z,39.40
2023-02-18T12:08:29.628Z,39.40
2023-02-18T12:10:57.540Z,39.60
2023-02-18T12:13:25.353Z,39.60
2023-02-18T12:15:53.108Z,39.60
2023-02-18T12:18:20.978Z,39.60
2023-02-18T12:20:48.762Z,39.50
2023-02-18T12:23:16.634Z,39.70
2023-02-18T12:25:44.442Z,39.70
2023-02-18T12:28:13.263Z,39.70
2023-02-18T12:30:41.077Z,39.90
2023-02-18T12:33:08.884Z,39.90
2023-02-18T12:35:36.634Z,39.70
2023-02-18T12:38:04.418Z,39.90
2023-02-18T12:40:32.225Z,39.90
2023-02-18T12:42:59.975Z,39.80
2023-02-18T12:45:27.711Z,40.00
2023-02-18T12:47:55.548Z,41.10
2023-02-18T12:50:23.334Z,37.20
2023-02-18T12:52:51.345Z,30.90
2023-02-18T12:55:19.157Z,26.90
2023-02-18T12:57:46.945Z,24.20
2023-02-18T13:00:15.516Z,22.50
2023-02-18T13:02:43.323Z,21.30
2023-02-18T13:05:11.060Z,20.60
2023-02-18T13:07:40.151Z,19.90
2023-02-18T13:10:07.979Z,19.40
2023-02-18T13:12:35.797Z,19.10
2023-02-18T13:15:03.513Z,18.90
2023-02-18T13:17:31.268Z,18.80
2023-02-18T13:19:59.021Z,19.00
2023-02-18T13:22:27.877Z,19.30
2023-02-18T13:24:55.636Z,19.70
2023-02-18T13:27:23.414Z,20.30
2023-02-18T13:29:51.195Z,20.80
2023-02-18T13:32:19.496Z,21.30
2023-02-18T13:34:47.284Z,22.00
2023-02-18T13:37:15.046Z,22.60
2023-02-18T13:39:42.845Z,23.30
2023-02-18T13:42:10.700Z,23.90
2023-02-18T13:44:38.513Z,24.50
2023-02-18T13:47:06.398Z,25.00
2023-02-18T13:49:34.194Z,25.50
2023-02-18T13:52:01.989Z,26.00
2023-02-18T13:54:29.800Z,26.70
2023-02-18T13:56:57.622Z,27.00
2023-02-18T13:59:25.369Z,27.60
2023-02-18T14:01:53.240Z,28.10
2023-02-18T14:04:21.016Z,28.60
2023-02-18T14:06:48.761Z,29.00
2023-02-18T14:09:16.674Z,29.40
2023-02-18T14:11:44.491Z,29.90
2023-02-18T14:14:12.257Z,30.20
2023-02-18T14:16:40.045Z,30.60
2023-02-18T14:19:07.864Z,31.20
2023-02-18T14:21:35.605Z,31.70
2023-02-18T14:24:06.080Z,32.00
2023-02-18T14:26:33.955Z,32.50
2023-02-18T14:29:35.548Z,32.90
2023-02-18T14:32:05.012Z,33.30
2023-02-18T14:34:32.892Z,33.80
2023-02-18T14:37:00.695Z,34.20
2023-02-18T14:39:28.431Z,34.50
2023-02-18T14:41:56.141Z,33.00
2023-02-18T14:47:10.825Z,29.00
2023-02-18T14:49:38.581Z,27.30
2023-02-18T14:52:06.292Z,25.80
2023-02-18T14:54:34.060Z,24.90
2023-02-18T14:57:01.802Z,24.30
2023-02-18T14:59:29.609Z,24.10
2023-02-18T15:01:57.519Z,24.10
2023-02-18T15:04:25.315Z,24.40
2023-02-18T15:06:53.016Z,24.70
2023-02-18T15:09:20.780Z,24.90
2023-02-18T15:11:48.529Z,25.40
2023-02-18T15:14:16.237Z,25.80
2023-02-18T15:16:43.989Z,26.30
2023-02-18T15:19:13.407Z,26.80
2023-02-18T15:21:41.327Z,27.30
2023-02-18T15:24:09.101Z,27.80
2023-02-18T15:26:36.826Z,28.30
2023-02-18T15:29:04.609Z,28.70
2023-02-18T15:31:32.408Z,29.10
2023-02-18T15:34:00.345Z,29.60
2023-02-18T15:36:28.237Z,30.00
2023-02-18T15:38:56.108Z,30.50
2023-02-18T15:41:24.140Z,31.00
2023-02-18T15:43:51.884Z,31.50
2023-02-18T15:46:19.668Z,32.00
2023-02-18T15:48:47.370Z,32.40
2023-02-18T15:51:17.767Z,32.90
2023-02-18T15:53:45.708Z,33.30
2023-02-18T15:56:13.449Z,33.80
2023-02-18T15:58:41.196Z,34.10
2023-02-18T16:01:09.330Z,34.50
2023-02-18T16:03:37.306Z,34.80
2023-02-18T16:06:05.040Z,35.20
2023-02-18T16:08:32.749Z,35.40
2023-02-18T16:11:02.739Z,35.70
2023-02-18T16:13:31.460Z,35.90
2023-02-18T16:16:06.628Z,36.20
2023-02-18T16:18:34.492Z,36.40
2023-02-18T16:21:02.569Z,36.60
2023-02-18T16:23:30.293Z,36.90
2023-02-18T16:25:57.994Z,37.00
2023-02-18T16:28:27.816Z,37.10
2023-02-18T16:30:55.599Z,37.40
2023-02-18T16:33:23.312Z,37.70
2023-02-18T16:35:51.214Z,37.20
2023-02-18T16:38:19.051Z,34.50
2023-02-18T16:40:46.754Z,30.90
2023-02-18T16:43:15.578Z,28.20
2023-02-18T16:45:43.311Z,26.00
2023-02-18T16:48:11.007Z,24.20
2023-02-18T16:50:38.727Z,23.00
2023-02-18T16:53:06.459Z,22.10
2023-02-18T16:55:34.148Z,21.40
2023-02-18T16:58:01.957Z,21.10
2023-02-18T17:00:29.707Z,21.10
2023-02-18T17:02:57.445Z,21.30
2023-02-18T17:05:26.866Z,21.60
2023-02-18T17:07:54.919Z,22.10
2023-02-18T17:10:22.673Z,22.60
2023-02-18T17:12:50.413Z,23.10
2023-02-18T17:15:18.130Z,23.70
2023-02-18T17:17:45.904Z,24.20
2023-02-18T17:20:14.665Z,24.80
2023-02-18T17:22:43.087Z,25.30
2023-02-18T17:25:10.878Z,25.80
2023-02-18T17:27:38.787Z,26.30
2023-02-18T17:30:06.581Z,26.80
2023-02-18T17:32:34.309Z,27.20
2023-02-18T17:35:02.032Z,27.80
2023-02-18T17:37:29.761Z,28.20
2023-02-18T17:39:57.469Z,28.70
2023-02-18T17:42:25.201Z,29.10
2023-02-18T17:44:52.949Z,29.50
2023-02-18T17:47:20.682Z,29.90
2023-02-18T17:49:48.410Z,30.20
2023-02-18T17:52:16.168Z,30.70
2023-02-18T17:54:43.905Z,31.30
2023-02-18T17:57:11.602Z,31.70
2023-02-18T17:59:39.287Z,32.10
2023-02-18T18:02:07.007Z,32.60
2023-02-18T18:04:34.767Z,33.00
2023-02-18T18:07:02.500Z,33.40
2023-02-18T18:09:30.224Z,33.80
2023-02-18T18:11:58.029Z,34.10
2023-02-18T18:14:25.759Z,34.40
2023-02-18T18:16:53.492Z,34.70
2023-02-18T18:19:21.365Z,35.00
2023-02-18T18:21:49.203Z,35.40
2023-02-18T18:24:16.965Z,35.50
2023-02-18T18:26:44.706Z,35.70
2023-02-18T18:29:12.698Z,36.10
2023-02-18T18:31:40.597Z,36.20
2023-02-18T18:34:08.510Z,36.40
2023-02-18T18:36:36.284Z,36.60
2023-02-18T18:39:04.117Z,36.90
2023-02-18T18:41:31.880Z,37.20
2023-02-18T18:43:59.598Z,36.20
2023-02-18T18:46:27.393Z,33.30
2023-02-18T18:48:56.033Z,29.80
2023-02-18T18:51:24.047Z,27.20
2023-02-18T18:53:51.840Z,25.00
2023-02-18T18:56:19.654Z,23.60
2023-02-18T18:58:47.558Z,22.60
2023-02-18T19:01:22.718Z,22.00
2023-02-18T19:03:50.500Z,21.90
2023-02-18T19:06:18.309Z,21.90
2023-02-18T19:08:47.814Z,22.10
2023-02-18T19:11:15.694Z,22.60
2023-02-18T19:13:43.433Z,23.00
2023-02-18T19:16:11.282Z,23.60
2023-02-18T19:18:39.146Z,24.10
2023-02-18T19:21:07.080Z,24.70
2023-02-18T19:23:35.060Z,25.30
2023-02-18T19:26:02.967Z,25.70
2023-02-18T19:28:30.720Z,26.20
2023-02-18T19:30:58.541Z,26.70
2023-02-18T19:33:26.334Z,27.20
2023-02-18T19:35:54.103Z,27.70
2023-02-18T19:38:21.872Z,28.20
2023-02-18T19:40:49.604Z,28.60
2023-02-18T19:43:17.336Z,29.10
2023-02-18T19:45:45.089Z,29.50
2023-02-18T19:48:12.940Z,29.90
2023-02-18T19:50:40.689Z,30.30
2023-02-18T19:53:08.465Z,30.80
2023-02-18T19:55:36.258Z,31.30
2023-02-18T19:58:03.997Z,31.70
2023-02-18T20:00:31.743Z,32.10
2023-02-18T20:02:59.592Z,32.60
2023-02-18T20:05:27.442Z,33.00
2023-02-18T20:07:55.150Z,33.40
2023-02-18T20:10:23.574Z,33.80
2023-02-18T20:12:51.413Z,34.20
2023-02-18T20:15:19.166Z,34.40
2023-02-18T20:17:47.982Z,34.80
2023-02-18T20:20:15.678Z,35.00
2023-02-18T20:22:43.387Z,35.40
2023-02-18T20:25:11.223Z,35.70
2023-02-18T20:27:47.909Z,35.90
2023-02-18T20:30:22.485Z,36.10
2023-02-18T20:32:50.294Z,36.40
2023-02-18T20:35:18.087Z,36.60
2023-02-18T20:37:45.866Z,36.80
2023-02-18T20:40:13.688Z,37.00
2023-02-18T20:42:42.045Z,37.10
2023-02-18T20:45:09.853Z,37.30
2023-02-18T20:47:37.638Z,37.50
2023-02-18T20:50:05.375Z,37.60
2023-02-18T20:52:34.756Z,37.80
2023-02-18T20:55:02.711Z,37.80
2023-02-18T20:57:30.539Z,37.90
2023-02-18T20:59:59.023Z,38.00
2023-02-18T21:05:14.836Z,38.30
2023-02-18T21:07:42.661Z,38.30
2023-02-18T21:10:10.661Z,38.40
2023-02-18T21:12:38.351Z,38.50
2023-02-18T21:15:06.202Z,38.60
2023-02-18T21:17:33.938Z,38.50
2023-02-18T21:20:01.699Z,38.70
2023-02-18T21:22:29.486Z,38.80
2023-02-18T21:24:59.202Z,39.50
2023-02-18T21:27:27.516Z,38.90
2023-02-18T21:29:55.255Z,38.80
2023-02-18T21:32:23.263Z,39.00
2023-02-18T21:34:51.071Z,39.00
2023-02-18T21:37:18.876Z,39.10
2023-02-18T21:39:46.644Z,39.10
2023-02-18T21:42:14.317Z,39.20
2023-02-18T21:44:43.056Z,39.20
2023-02-18T21:47:11.010Z,39.30
2023-02-18T21:49:38.806Z,39.20
2023-02-18T21:52:09.504Z,39.40
2023-02-18T21:54:37.432Z,39.40
2023-02-18T21:57:05.224Z,39.50
2023-02-18T21:59:32.996Z,39.40
2023-02-18T22:02:01.092Z,39.50
2023-02-18T22:04:28.894Z,39.50
2023-02-18T22:06:56.800Z,39.60
2023-02-18T22:09:24.599Z,39.60
2023-02-18T22:11:52.353Z,39.70
2023-02-18T22:14:20.118Z,39.70
2023-02-18T22:16:48.013Z,39.70
2023-02-18T22:19:15.842Z,39.80
2023-02-18T22:21:43.790Z,39.90
2023-02-18T22:24:11.606Z,39.80
2023-02-18T22:26:39.346Z,39.90
2023-02-18T22:29:07.101Z,40.00
2023-02-18T22:31:34.974Z,39.90
2023-02-18T22:34:02.854Z,39.90
2023-02-18T22:36:30.711Z,40.00
2023-02-18T22:38:58.442Z,40.10
2023-02-18T22:41:26.490Z,40.10
2023-02-18T22:43:54.201Z,40.00
2023-02-18T22:46:22.028Z,40.20
2023-02-18T22:48:49.841Z,40.20
2023-02-18T22:51:17.597Z,40.20
2023-02-18T22:53:45.404Z,40.30
2023-02-18T22:56:13.452Z,40.20
2023-02-18T22:58:41.316Z,40.20
2023-02-18T23:01:09.493Z,40.30
2023-02-18T23:03:37.423Z,40.40
2023-02-18T23:06:05.198Z,40.20
2023-02-18T23:08:33.067Z,40.30
2023-02-18T23:11:00.852Z,40.30
2023-02-18T23:13:28.612Z,40.20
2023-02-18T23:15:56.442Z,40.40
2023-02-18T23:18:24.232Z,40.40
2023-02-18T23:21:09.786Z,40.40
2023-02-18T23:23:37.655Z,40.50
2023-02-18T23:26:05.393Z,40.50
2023-02-18T23:28:47.703Z,40.40
2023-02-18T23:31:15.910Z,40.50
2023-02-18T23:33:43.680Z,40.40
2023-02-18T23:36:11.595Z,40.40
2023-02-18T23:38:39.294Z,40.50
2023-02-18T23:41:07.254Z,40.50
2023-02-18T23:43:35.062Z,40.50
2023-02-18T23:46:02.860Z,40.50
2023-02-18T23:48:30.654Z,40.50
2023-02-18T23:50:58.385Z,40.50
2023-02-18T23:53:26.409Z,40.60
2023-02-18T23:55:54.209Z,40.50
2023-02-18T23:58:21.909Z,40.60
